createdAt,value
2024-01-19T00:01:25.996Z,2.53
2024-01-19T00:03:53.080Z,5.85
2024-01-19T00:06:20.364Z,3.83
2024-01-19T00:08:51.102Z,2.90
2024-01-19T00:11:19.467Z,2.38
2024-01-19T00:13:47.680Z,3.90
2024-01-19T00:16:14.817Z,4.25
2024-01-19T00:18:42.219Z,3.83
2024-01-19T00:21:09.204Z,5.07
2024-01-19T00:23:39.567Z,2.53
2024-01-19T00:26:06.862Z,4.50
2024-01-19T00:28:34.316Z,3.17
2024-01-19T00:31:03.600Z,3.80
2024-01-19T00:33:30.935Z,4.72
2024-01-19T00:35:58.129Z,4.18
2024-01-19T00:38:25.992Z,2.55
2024-01-19T00:40:53.516Z,6.13
2024-01-19T00:43:20.656Z,2.13
2024-01-19T00:45:47.782Z,5.55
2024-01-19T00:48:15.094Z,4.03
2024-01-19T00:50:42.246Z,4.93
2024-01-19T00:53:09.756Z,5.43
2024-01-19T00:55:36.782Z,1.63
2024-01-19T00:58:03.790Z,3.10
2024-01-19T01:00:30.844Z,2.13
2024-01-19T01:02:58.650Z,3.78
2024-01-19T01:05:25.918Z,4.65
2024-01-19T01:07:53.029Z,2.95
2024-01-19T01:10:20.151Z,3.45
2024-01-19T01:12:47.260Z,4.25
2024-01-19T01:15:15.627Z,3.38
2024-01-19T01:17:43.010Z,1.48
2024-01-19T01:20:13.822Z,2.65
2024-01-19T01:22:40.945Z,2.92
2024-01-19T01:25:08.063Z,1.38
2024-01-19T01:27:35.116Z,5.07
2024-01-19T01:30:08.282Z,2.55
2024-01-19T01:32:35.814Z,1.95
2024-01-19T01:35:03.856Z,2.42
2024-01-19T01:37:31.317Z,1.55
2024-01-19T01:39:58.449Z,1.40
2024-01-19T01:42:25.557Z,3.80
2024-01-19T01:44:52.683Z,1.33
2024-01-19T01:47:19.856Z,3.53
2024-01-19T01:49:47.154Z,1.80
2024-01-19T01:52:14.478Z,0.88
2024-01-19T01:54:41.545Z,2.03
2024-01-19T01:57:09.066Z,0.88
2024-01-19T01:59:36.197Z,3.10
2024-01-19T02:02:04.276Z,1.75
2024-01-19T02:04:31.561Z,2.33
2024-01-19T02:06:58.894Z,1.88
2024-01-19T02:09:26.065Z,1.27
2024-01-19T02:11:54.088Z,1.85
2024-01-19T02:14:21.129Z,2.45
2024-01-19T02:16:48.259Z,4.55
2024-01-19T02:19:15.398Z,2.20
2024-01-19T02:21:42.834Z,4.63
2024-01-19T02:24:14.553Z,0.95
2024-01-19T02:26:42.022Z,2.40
2024-01-19T02:29:09.103Z,1.15
2024-01-19T02:31:36.220Z,2.03
2024-01-19T02:34:03.659Z,0.95
2024-01-19T02:36:30.617Z,4.10
2024-01-19T02:38:57.630Z,3.72
2024-01-19T02:41:24.815Z,2.00
2024-01-19T02:43:51.790Z,3.42
2024-01-19T02:46:21.770Z,2.80
2024-01-19T02:48:48.979Z,2.17
2024-01-19T02:51:16.070Z,1.13
2024-01-19T02:53:43.163Z,1.63
2024-01-19T02:56:10.316Z,7.13
2024-01-19T02:58:37.319Z,3.08
2024-01-19T03:01:04.445Z,1.08
2024-01-19T03:03:31.573Z,2.92
2024-01-19T03:05:58.630Z,1.35
2024-01-19T03:08:25.851Z,1.42
2024-01-19T03:10:52.972Z,1.88
2024-01-19T03:13:20.175Z,1.67
2024-01-19T03:15:47.164Z,0.70
2024-01-19T03:18:14.656Z,2.42
2024-01-19T03:20:41.880Z,2.33
2024-01-19T03:23:09.757Z,4.38
2024-01-19T03:25:36.914Z,1.67
2024-01-19T03:28:04.224Z,2.13
2024-01-19T03:30:31.337Z,0.70
2024-01-19T03:32:58.504Z,2.78
2024-01-19T03:35:26.574Z,6.10
2024-01-19T03:37:53.827Z,3.22
2024-01-19T03:40:21.874Z,6.30
2024-01-19T03:42:48.951Z,5.80
2024-01-19T03:45:16.125Z,6.65
2024-01-19T03:47:45.042Z,8.57
2024-01-19T03:50:12.496Z,6.05
2024-01-19T03:52:39.708Z,9.73
2024-01-19T03:55:06.927Z,16.20
2024-01-19T03:57:34.122Z,8.48
2024-01-19T04:00:01.479Z,7.25
2024-01-19T04:02:38.912Z,7.20
2024-01-19T04:05:06.522Z,11.48
2024-01-19T04:07:33.491Z,6.50
2024-01-19T04:10:00.619Z,12.07
2024-01-19T04:12:27.624Z,11.65
2024-01-19T04:14:54.664Z,10.27
2024-01-19T04:17:21.777Z,21.67
2024-01-19T04:19:48.905Z,15.98
2024-01-19T04:22:16.005Z,20.00
2024-01-19T04:24:43.128Z,23.52
2024-01-19T04:27:10.907Z,21.05
2024-01-19T04:29:38.005Z,23.80
2024-01-19T04:32:05.381Z,26.33
2024-01-19T04:34:32.538Z,29.92
2024-01-19T04:36:59.586Z,23.33
2024-01-19T04:39:26.971Z,17.15
2024-01-19T04:41:54.120Z,35.28
2024-01-19T04:44:21.324Z,25.75
2024-01-19T04:46:48.445Z,21.10
2024-01-19T04:49:15.572Z,17.35
2024-01-19T04:51:42.935Z,23.98
2024-01-19T04:54:11.887Z,19.70
2024-01-19T04:56:38.931Z,23.15
2024-01-19T04:59:06.584Z,23.38
2024-01-19T05:01:33.581Z,14.43
2024-01-19T05:04:01.100Z,20.17
2024-01-19T05:06:28.723Z,24.90
2024-01-19T05:08:55.985Z,15.20
2024-01-19T05:11:23.362Z,18.50
2024-01-19T05:13:50.482Z,21.58
2024-01-19T05:16:17.879Z,17.42
2024-01-19T05:18:44.916Z,18.33
2024-01-19T05:21:11.974Z,15.45
2024-01-19T05:23:39.052Z,18.25
2024-01-19T05:26:06.287Z,15.73
2024-01-19T05:28:35.192Z,15.95
2024-01-19T05:31:02.337Z,21.75
2024-01-19T05:33:32.067Z,19.05
2024-01-19T05:36:00.029Z,24.40
2024-01-19T05:38:27.077Z,12.52
2024-01-19T05:40:54.216Z,17.90
2024-01-19T05:43:21.194Z,23.92
2024-01-19T05:45:48.178Z,17.60
2024-01-19T05:48:15.409Z,19.35
2024-01-19T05:50:42.564Z,24.42
2024-01-19T05:53:09.683Z,17.27
2024-01-19T05:55:36.727Z,23.00
2024-01-19T05:58:06.338Z,25.30
2024-01-19T06:00:34.780Z,17.45
2024-01-19T06:03:01.957Z,15.32
2024-01-19T06:05:29.202Z,20.98
2024-01-19T06:07:56.303Z,19.85
2024-01-19T06:10:23.422Z,22.50
2024-01-19T06:12:50.419Z,16.65
2024-01-19T06:15:17.422Z,21.98
2024-01-19T06:17:44.927Z,18.67
2024-01-19T06:20:12.755Z,16.02
2024-01-19T06:22:40.224Z,16.27
2024-01-19T06:25:07.652Z,21.55
2024-01-19T06:27:34.920Z,18.33
2024-01-19T06:30:02.061Z,18.20
2024-01-19T06:32:29.266Z,18.30
2024-01-19T06:34:56.666Z,21.27
2024-01-19T06:37:24.149Z,13.98
2024-01-19T06:39:51.165Z,17.20
2024-01-19T06:42:18.140Z,18.85
2024-01-19T06:44:45.667Z,22.67
2024-01-19T06:47:12.749Z,14.75
2024-01-19T06:49:40.497Z,17.60
2024-01-19T06:52:07.864Z,14.80
2024-01-19T06:54:35.029Z,19.40
2024-01-19T06:57:02.773Z,21.58
2024-01-19T06:59:29.982Z,17.45
2024-01-19T07:01:57.081Z,23.63
2024-01-19T07:04:24.244Z,11.68
2024-01-19T07:06:51.515Z,17.95
2024-01-19T07:09:18.899Z,21.63
2024-01-19T07:11:46.743Z,20.10
2024-01-19T07:14:14.119Z,18.08
2024-01-19T07:16:41.811Z,22.30
2024-01-19T07:19:09.043Z,20.20
2024-01-19T07:21:40.002Z,16.85
2024-01-19T07:24:08.982Z,14.55
2024-01-19T07:26:37.167Z,12.52
2024-01-19T07:29:08.602Z,22.42
2024-01-19T07:31:36.198Z,19.38
2024-01-19T07:34:04.599Z,15.40
2024-01-19T07:36:32.640Z,15.73
2024-01-19T07:38:59.922Z,19.23
2024-01-19T07:41:27.301Z,24.42
2024-01-19T07:43:56.226Z,19.40
2024-01-19T07:46:23.328Z,16.63
2024-01-19T07:48:50.754Z,20.63
2024-01-19T07:51:18.153Z,26.05
2024-01-19T07:53:45.237Z,23.10
2024-01-19T07:56:15.367Z,18.90
2024-01-19T07:58:45.509Z,22.45
2024-01-19T08:01:13.096Z,21.20
2024-01-19T08:03:40.562Z,24.25
2024-01-19T08:06:08.016Z,19.80
2024-01-19T08:08:35.204Z,18.38
2024-01-19T08:11:02.437Z,27.50
2024-01-19T08:13:29.478Z,18.90
2024-01-19T08:15:56.481Z,11.60
2024-01-19T08:18:23.707Z,20.83
2024-01-19T08:20:50.937Z,19.00
2024-01-19T08:23:17.965Z,9.23
2024-01-19T08:25:46.289Z,16.67
2024-01-19T08:28:16.657Z,8.63
2024-01-19T08:30:43.834Z,15.25
2024-01-19T08:33:10.907Z,10.50
2024-01-19T08:35:38.144Z,9.70
2024-01-19T08:38:05.280Z,14.48
2024-01-19T08:40:35.213Z,16.25
2024-01-19T08:43:04.102Z,13.85
2024-01-19T08:45:32.672Z,10.60
2024-01-19T08:48:00.120Z,12.98
2024-01-19T08:50:28.710Z,21.48
2024-01-19T08:52:56.989Z,10.65
2024-01-19T08:55:24.139Z,13.60
2024-01-19T08:57:51.285Z,11.88
2024-01-19T09:00:18.568Z,7.82
2024-01-19T09:02:57.083Z,15.38
2024-01-19T09:05:33.421Z,11.52
2024-01-19T09:08:01.337Z,13.82
2024-01-19T09:10:28.517Z,14.95
2024-01-19T09:12:55.664Z,10.60
2024-01-19T09:15:23.119Z,12.40
2024-01-19T09:17:50.276Z,7.43
2024-01-19T09:20:17.485Z,7.70
2024-01-19T09:22:44.870Z,15.85
2024-01-19T09:25:13.008Z,3.67
2024-01-19T09:27:40.175Z,8.85
2024-01-19T09:30:08.181Z,15.80
2024-01-19T09:32:35.358Z,8.82
2024-01-19T09:35:02.419Z,11.30
2024-01-19T09:37:29.630Z,5.88
2024-01-19T09:39:56.724Z,7.32
2024-01-19T09:42:34.904Z,10.48
2024-01-19T09:45:06.233Z,6.20
2024-01-19T09:48:04.366Z,9.55
2024-01-19T09:50:36.813Z,5.70
2024-01-19T09:53:21.873Z,7.30
2024-01-19T09:58:17.278Z,5.50
2024-01-19T10:00:44.995Z,6.15
2024-01-19T10:03:14.531Z,5.95
2024-01-19T10:05:41.914Z,3.08
2024-01-19T10:08:11.803Z,3.22
2024-01-19T10:10:42.337Z,6.43
2024-01-19T10:13:09.798Z,2.72
2024-01-19T10:15:36.882Z,8.20
2024-01-19T10:18:06.747Z,6.00
2024-01-19T10:20:34.327Z,5.10
2024-01-19T10:23:22.567Z,8.23
2024-01-19T10:25:50.933Z,8.15
2024-01-19T10:28:36.744Z,4.22
2024-01-19T10:31:27.600Z,6.07
2024-01-19T10:33:58.297Z,11.70
2024-01-19T10:36:27.551Z,4.40
2024-01-19T10:38:54.734Z,5.10
2024-01-19T10:41:27.216Z,5.15
2024-01-19T10:43:54.622Z,9.63
2024-01-19T10:46:23.544Z,5.70
2024-01-19T10:48:54.426Z,5.63
2024-01-19T10:51:22.306Z,7.20
2024-01-19T10:53:53.367Z,4.03
2024-01-19T10:56:23.444Z,7.57
2024-01-19T10:58:51.216Z,4.10
2024-01-19T11:01:19.365Z,8.57
2024-01-19T11:03:46.691Z,2.63
2024-01-19T11:06:14.222Z,2.83
2024-01-19T11:08:41.802Z,2.08
2024-01-19T11:11:09.031Z,2.40
2024-01-19T11:13:44.047Z,5.65
2024-01-19T11:16:22.445Z,4.60
2024-01-19T11:18:50.382Z,3.65
2024-01-19T11:21:17.617Z,3.13
2024-01-19T11:23:45.733Z,8.07
2024-01-19T11:26:25.431Z,4.43
2024-01-19T11:29:02.834Z,4.82
2024-01-19T11:31:34.065Z,3.95
2024-01-19T11:34:01.376Z,3.13
2024-01-19T11:36:34.675Z,5.20
2024-01-19T11:39:01.804Z,1.90
2024-01-19T11:41:35.155Z,3.13
2024-01-19T11:44:06.607Z,7.28
2024-01-19T11:47:00.339Z,6.18
2024-01-19T11:49:40.174Z,4.40
2024-01-19T11:52:27.696Z,2.75
2024-01-19T11:54:54.732Z,3.95
2024-01-19T11:57:22.811Z,6.50
2024-01-19T11:59:50.067Z,4.45
2024-01-19T12:02:24.682Z,4.18
2024-01-19T12:07:23.506Z,8.45
2024-01-19T12:10:10.619Z,6.10
2024-01-19T12:12:41.879Z,2.67
2024-01-19T12:15:10.952Z,5.07
2024-01-19T12:17:42.094Z,5.80
2024-01-19T12:20:20.466Z,5.00
2024-01-19T12:22:54.231Z,3.88
2024-01-19T12:25:23.676Z,6.28
2024-01-19T12:27:51.496Z,5.65
2024-01-19T12:30:20.678Z,2.30
2024-01-19T12:32:48.847Z,4.63
2024-01-19T12:35:21.093Z,6.88
2024-01-19T12:37:48.701Z,11.00
2024-01-19T12:40:18.651Z,6.60
2024-01-19T12:42:46.449Z,4.15
2024-01-19T12:45:17.625Z,13.75
2024-01-19T12:47:49.263Z,10.75
2024-01-19T12:50:23.015Z,12.40
2024-01-19T12:52:53.288Z,7.63
2024-01-19T12:55:28.221Z,7.95
2024-01-19T12:57:55.597Z,11.20
2024-01-19T13:00:31.745Z,6.22
2024-01-19T13:03:00.116Z,6.13
2024-01-19T13:05:30.644Z,11.75
2024-01-19T13:08:02.743Z,4.45
2024-01-19T13:10:30.803Z,3.25
2024-01-19T13:13:10.216Z,8.18
2024-01-19T13:15:37.993Z,8.73
2024-01-19T13:18:12.405Z,23.60
2024-01-19T13:20:40.905Z,12.02
2024-01-19T13:23:09.322Z,11.23
2024-01-19T13:25:38.819Z,8.55
2024-01-19T13:28:06.677Z,4.68
2024-01-19T13:30:36.034Z,6.03
2024-01-19T13:33:03.632Z,5.60
2024-01-19T13:35:31.515Z,8.32
2024-01-19T13:37:58.858Z,5.38
2024-01-19T13:40:26.284Z,11.02
2024-01-19T13:42:53.563Z,9.88
2024-01-19T13:45:20.935Z,10.93
2024-01-19T13:47:47.975Z,9.52
2024-01-19T13:50:15.458Z,7.53
2024-01-19T13:52:42.768Z,5.13
2024-01-19T13:55:10.223Z,7.00
2024-01-19T13:57:37.838Z,3.05
2024-01-19T14:00:06.916Z,5.40
2024-01-19T14:02:35.379Z,17.75
2024-01-19T14:05:04.675Z,9.00
2024-01-19T14:07:33.207Z,6.93
2024-01-19T14:10:00.666Z,4.90
2024-01-19T14:12:28.229Z,6.75
2024-01-19T14:14:55.697Z,5.78
2024-01-19T14:17:23.309Z,7.60
2024-01-19T14:19:50.578Z,7.97
2024-01-19T14:22:17.890Z,8.80
2024-01-19T14:24:45.025Z,7.50
2024-01-19T14:27:12.081Z,6.45
2024-01-19T14:29:39.593Z,6.50
2024-01-19T14:32:07.203Z,7.80
2024-01-19T14:34:39.828Z,8.88
2024-01-19T14:37:13.556Z,7.38
2024-01-19T14:39:43.341Z,5.35
2024-01-19T14:42:10.687Z,5.55
2024-01-19T14:44:37.827Z,7.88
2024-01-19T14:47:05.829Z,7.20
2024-01-19T14:49:37.973Z,5.45
2024-01-19T14:52:06.672Z,5.53
2024-01-19T14:54:35.293Z,4.05
2024-01-19T14:57:02.764Z,5.78
2024-01-19T14:59:29.890Z,5.80
2024-01-19T15:01:58.066Z,6.60
2024-01-19T15:04:26.041Z,5.20
2024-01-19T15:06:53.433Z,8.15
2024-01-19T15:09:20.601Z,23.63
2024-01-19T15:11:47.773Z,14.63
2024-01-19T15:14:14.961Z,13.88
2024-01-19T15:16:42.463Z,12.05
2024-01-19T15:19:09.723Z,15.63
2024-01-19T15:21:36.796Z,5.97
2024-01-19T15:24:07.881Z,5.13
2024-01-19T15:26:36.010Z,8.05
2024-01-19T15:29:03.709Z,13.75
2024-01-19T15:31:31.075Z,7.15
2024-01-19T15:33:58.441Z,13.63
2024-01-19T15:36:25.662Z,6.88
2024-01-19T15:38:52.831Z,8.07
2024-01-19T15:41:25.250Z,9.25
2024-01-19T15:43:52.788Z,7.75
2024-01-19T15:46:24.186Z,9.07
2024-01-19T15:49:02.987Z,7.00
2024-01-19T15:51:34.409Z,8.35
2024-01-19T15:54:02.210Z,5.70
2024-01-19T15:56:36.669Z,7.72
2024-01-19T15:59:07.132Z,3.15
2024-01-19T16:01:35.092Z,7.53
2024-01-19T16:04:04.200Z,10.52
2024-01-19T16:06:32.834Z,6.25
2024-01-19T16:08:59.981Z,3.58
2024-01-19T16:11:27.093Z,4.95
2024-01-19T16:13:54.156Z,6.88
2024-01-19T16:16:21.355Z,3.47
2024-01-19T16:18:48.398Z,8.48
2024-01-19T16:21:21.339Z,3.13
2024-01-19T16:23:48.543Z,5.13
2024-01-19T16:26:19.488Z,3.15
2024-01-19T16:28:49.565Z,5.90
2024-01-19T16:31:17.650Z,5.07
2024-01-19T16:33:44.688Z,10.15
2024-01-19T16:36:11.884Z,9.80
2024-01-19T16:38:41.469Z,10.65
2024-01-19T16:41:08.637Z,6.85
2024-01-19T16:43:36.000Z,13.90
2024-01-19T16:46:03.957Z,7.72
2024-01-19T16:48:31.010Z,5.40
2024-01-19T16:51:00.795Z,12.35
2024-01-19T16:53:28.013Z,8.45
2024-01-19T16:55:59.718Z,14.85
2024-01-19T16:58:26.830Z,8.60
2024-01-19T17:00:53.991Z,17.52
2024-01-19T17:03:22.126Z,11.85
2024-01-19T17:05:49.418Z,7.90
2024-01-19T17:08:16.698Z,10.85
2024-01-19T17:10:43.958Z,12.52
2024-01-19T17:13:11.194Z,7.30
2024-01-19T17:15:38.353Z,7.82
2024-01-19T17:18:06.105Z,8.90
2024-01-19T17:20:34.251Z,9.13
2024-01-19T17:23:01.577Z,9.30
2024-01-19T17:25:29.360Z,8.85
2024-01-19T17:27:57.536Z,12.05
2024-01-19T17:30:25.402Z,8.32
2024-01-19T17:32:56.733Z,6.80
2024-01-19T17:35:24.721Z,9.63
2024-01-19T17:37:52.459Z,8.07
2024-01-19T17:40:21.253Z,8.30
2024-01-19T17:42:49.334Z,10.80
2024-01-19T17:45:22.220Z,9.15
2024-01-19T17:47:52.702Z,7.13
2024-01-19T17:50:21.470Z,7.43
2024-01-19T17:52:49.748Z,12.27
2024-01-19T17:55:17.213Z,8.90
2024-01-19T17:57:49.717Z,8.55
2024-01-19T18:00:18.115Z,9.02
2024-01-19T18:02:46.264Z,6.82
2024-01-19T18:05:13.662Z,8.55
2024-01-19T18:07:41.301Z,6.30
2024-01-19T18:10:08.939Z,7.95
2024-01-19T18:12:36.401Z,8.27
2024-01-19T18:15:07.925Z,8.85
2024-01-19T18:17:35.686Z,9.55
2024-01-19T18:20:03.538Z,11.68
2024-01-19T18:22:32.556Z,7.88
2024-01-19T18:24:59.803Z,7.45
2024-01-19T18:27:29.417Z,10.00
2024-01-19T18:29:56.810Z,9.05
2024-01-19T18:32:24.497Z,10.88
2024-01-19T18:34:52.055Z,9.13
2024-01-19T18:37:19.376Z,6.85
2024-01-19T18:39:46.423Z,7.35
2024-01-19T18:42:13.542Z,8.52
2024-01-19T18:44:40.998Z,7.90
2024-01-19T18:47:08.450Z,8.60
2024-01-19T18:49:35.928Z,7.38
2024-01-19T18:52:03.328Z,6.47
2024-01-19T18:54:30.530Z,9.30
2024-01-19T18:56:57.825Z,8.07
2024-01-19T18:59:27.068Z,5.93
2024-01-19T19:01:54.697Z,8.85
2024-01-19T19:04:21.891Z,9.55
2024-01-19T19:06:49.740Z,8.90
2024-01-19T19:09:17.064Z,7.82
2024-01-19T19:11:46.183Z,7.88
2024-01-19T19:14:14.627Z,8.30
2024-01-19T19:16:46.526Z,8.98
2024-01-19T19:19:16.031Z,7.63
2024-01-19T19:21:43.797Z,10.75
2024-01-19T19:24:11.118Z,12.57
2024-01-19T19:26:39.452Z,8.27
2024-01-19T19:29:07.478Z,10.05
2024-01-19T19:31:34.846Z,11.55
2024-01-19T19:34:02.460Z,6.70
2024-01-19T19:36:30.799Z,6.45
2024-01-19T19:38:58.910Z,9.27
2024-01-19T19:41:27.584Z,5.70
2024-01-19T19:43:54.737Z,5.90
2024-01-19T19:46:21.847Z,8.38
2024-01-19T19:48:49.010Z,6.30
2024-01-19T19:51:18.576Z,11.50
2024-01-19T19:53:49.351Z,5.88
2024-01-19T19:56:17.083Z,4.63
2024-01-19T19:58:47.155Z,6.13
2024-01-19T20:01:14.342Z,11.02
2024-01-19T20:03:41.331Z,7.45
2024-01-19T20:06:09.689Z,8.63
2024-01-19T20:08:37.283Z,8.82
2024-01-19T20:11:05.459Z,6.65
2024-01-19T20:13:34.269Z,6.05
2024-01-19T20:16:01.844Z,6.68
2024-01-19T20:18:31.006Z,9.35
2024-01-19T20:20:58.579Z,7.90
2024-01-19T20:23:26.565Z,7.68
2024-01-19T20:25:54.189Z,7.15
2024-01-19T20:28:22.254Z,6.25
2024-01-19T20:30:49.816Z,7.05
2024-01-19T20:33:17.521Z,9.88
2024-01-19T20:35:44.865Z,7.30
2024-01-19T20:38:12.831Z,6.03
2024-01-19T20:40:40.140Z,11.05
2024-01-19T20:43:08.073Z,6.32
2024-01-19T20:45:35.205Z,9.07
2024-01-19T20:48:03.384Z,8.38
2024-01-19T20:50:30.594Z,6.78
2024-01-19T20:52:57.703Z,9.85
2024-01-19T20:55:25.492Z,6.88
2024-01-19T20:57:52.542Z,11.40
2024-01-19T21:00:23.693Z,6.75
2024-01-19T21:02:51.461Z,9.77
2024-01-19T21:05:19.965Z,10.13
2024-01-19T21:07:48.341Z,8.60
2024-01-19T21:10:15.622Z,9.50
2024-01-19T21:12:43.697Z,12.50
2024-01-19T21:15:12.405Z,13.13
2024-01-19T21:17:41.230Z,7.55
2024-01-19T21:20:09.728Z,8.27
2024-01-19T21:22:37.860Z,9.93
2024-01-19T21:25:06.695Z,7.30
2024-01-19T21:27:36.343Z,7.13
2024-01-19T21:30:03.715Z,12.52
2024-01-19T21:32:30.950Z,7.85
2024-01-19T21:34:58.092Z,11.73
2024-01-19T21:37:25.488Z,9.73
2024-01-19T21:39:54.534Z,10.18
2024-01-19T21:42:21.601Z,9.25
2024-01-19T21:44:48.698Z,13.25
2024-01-19T21:47:15.849Z,12.15
2024-01-19T21:49:43.740Z,8.60
2024-01-19T21:52:11.478Z,7.53
2024-01-19T21:54:39.180Z,10.30
2024-01-19T21:57:06.490Z,8.57
2024-01-19T21:59:33.560Z,8.48
2024-01-19T22:02:00.670Z,7.80
2024-01-19T22:04:27.955Z,9.88
2024-01-19T22:06:55.197Z,9.40
2024-01-19T22:09:22.657Z,10.38
2024-01-19T22:11:55.265Z,9.35
2024-01-19T22:14:26.801Z,10.15
2024-01-19T22:16:54.221Z,16.70
2024-01-19T22:19:23.864Z,10.38
2024-01-19T22:21:51.812Z,9.15
2024-01-19T22:24:22.286Z,11.05
2024-01-19T22:26:50.134Z,7.90
2024-01-19T22:29:17.886Z,11.00
2024-01-19T22:31:45.518Z,7.65
2024-01-19T22:34:16.205Z,7.85
2024-01-19T22:36:46.126Z,8.20
2024-01-19T22:39:13.975Z,5.75
2024-01-19T22:41:42.889Z,13.02
2024-01-19T22:44:10.677Z,12.63
2024-01-19T22:46:37.917Z,5.57
2024-01-19T22:49:05.256Z,12.05
2024-01-19T22:51:32.946Z,8.88
2024-01-19T22:54:00.493Z,8.65
2024-01-19T22:56:27.527Z,8.13
2024-01-19T22:58:55.997Z,7.15
2024-01-19T23:01:23.924Z,8.98
2024-01-19T23:03:51.187Z,9.98
2024-01-19T23:06:18.369Z,7.72
2024-01-19T23:08:45.419Z,6.13
2024-01-19T23:11:12.674Z,7.72
2024-01-19T23:13:40.041Z,11.70
2024-01-19T23:16:08.485Z,7.72
2024-01-19T23:18:35.546Z,8.30
2024-01-19T23:21:03.009Z,7.60
2024-01-19T23:23:30.682Z,6.50
2024-01-19T23:25:57.898Z,9.00
2024-01-19T23:28:25.017Z,6.17
2024-01-19T23:30:52.260Z,9.85
2024-01-19T23:33:20.753Z,9.68
2024-01-19T23:35:48.723Z,12.25
2024-01-19T23:38:16.379Z,9.50
2024-01-19T23:40:43.676Z,7.40
2024-01-19T23:43:11.384Z,5.75
2024-01-19T23:45:39.038Z,5.53
2024-01-19T23:48:08.006Z,8.60
2024-01-19T23:50:35.799Z,9.82
2024-01-19T23:53:03.290Z,8.82
2024-01-19T23:55:30.421Z,7.97
2024-01-19T23:57:57.629Z,8.07
